createdAt,value
2018-10-19T00:00:25.040Z,77.23
2018-10-19T00:01:25.013Z,76.94
2018-10-19T00:02:25.016Z,76.75
2018-10-19T00:03:25.009Z,76.81
2018-10-19T00:04:25.037Z,76.84
2018-10-19T00:05:25.008Z,76.94
2018-10-19T00:06:25.005Z,77.42
2018-10-19T00:07:25.007Z,77.47
2018-10-19T00:08:25.005Z,76.90
2018-10-19T00:09:25.033Z,77.13
2018-10-19T00:10:25.000Z,76.71
2018-10-19T00:11:24.999Z,76.71
2018-10-19T00:12:25.004Z,76.71
2018-10-19T00:13:24.997Z,75.85
2018-10-19T00:14:25.042Z,77.09
2018-10-19T00:15:24.997Z,75.95
2018-10-19T00:16:24.994Z,76.90
2018-10-19T00:17:24.988Z,76.81
2018-10-19T00:18:24.991Z,76.42
2018-10-19T00:19:25.015Z,76.90
2018-10-19T00:20:24.988Z,77.28
2018-10-19T00:21:24.984Z,76.33
2018-10-19T00:22:24.984Z,78.23
2018-10-19T00:23:24.992Z,77.19
2018-10-19T00:24:25.008Z,77.76
2018-10-19T00:25:24.980Z,76.90
2018-10-19T00:26:24.980Z,76.81
2018-10-19T00:27:24.973Z,78.23
2018-10-19T00:28:24.972Z,77.38
2018-10-19T00:29:25.009Z,77.09
2018-10-19T00:30:24.968Z,77.67
2018-10-19T00:31:24.973Z,77.86
2018-10-19T00:32:24.968Z,75.85
2018-10-19T00:33:24.963Z,79.38
2018-10-19T00:34:24.994Z,78.72
2018-10-19T00:35:24.995Z,77.95
2018-10-19T00:36:24.963Z,77.76
2018-10-19T00:37:24.964Z,78.43
2018-10-19T00:38:24.961Z,78.23
2018-10-19T00:39:24.962Z,77.76
2018-10-19T00:40:24.991Z,76.90
2018-10-19T00:41:24.956Z,76.52
2018-10-19T00:42:24.956Z,77.86
2018-10-19T00:43:24.955Z,78.05
2018-10-19T00:44:24.956Z,78.33
2018-10-19T00:45:24.985Z,77.86
2018-10-19T00:46:24.949Z,77.57
2018-10-19T00:47:24.948Z,77.19
2018-10-19T00:48:24.947Z,77.09
2018-10-19T00:49:24.948Z,77.47
2018-10-19T00:50:24.976Z,76.52
2018-10-19T00:51:24.943Z,77.57
2018-10-19T00:52:24.939Z,76.90
2018-10-19T00:53:24.947Z,77.86
2018-10-19T00:54:24.937Z,76.52
2018-10-19T00:55:24.968Z,76.90
2018-10-19T00:56:24.936Z,77.95
2018-10-19T00:57:24.956Z,77.38
2018-10-19T00:58:24.936Z,77.19
2018-10-19T00:59:24.931Z,76.71
2018-10-19T01:00:24.955Z,77.28
2018-10-19T01:01:24.957Z,76.71
2018-10-19T01:02:24.921Z,77.19
2018-10-19T01:03:24.924Z,77.09
2018-10-19T01:04:24.926Z,76.62
2018-10-19T01:05:24.921Z,76.81
2018-10-19T01:06:24.945Z,77.00
2018-10-19T01:07:24.918Z,75.37
2018-10-19T01:08:24.916Z,76.71
2018-10-19T01:09:24.914Z,76.71
2018-10-19T01:10:24.917Z,75.85
2018-10-19T01:11:24.944Z,75.57
2018-10-19T01:12:24.914Z,75.85
2018-10-19T01:13:24.912Z,75.76
2018-10-19T01:14:24.906Z,74.99
2018-10-19T01:15:24.903Z,76.04
2018-10-19T01:16:24.934Z,76.04
2018-10-19T01:17:24.903Z,75.28
2018-10-19T01:18:24.904Z,75.09
2018-10-19T01:19:24.902Z,75.76
2018-10-19T01:20:24.902Z,75.95
2018-10-19T01:21:24.929Z,75.95
2018-10-19T01:22:24.894Z,75.57
2018-10-19T01:23:24.894Z,76.33
2018-10-19T01:24:24.893Z,75.85
2018-10-19T01:25:24.889Z,76.81
2018-10-19T01:26:24.921Z,77.19
2018-10-19T01:27:24.886Z,76.52
2018-10-19T01:28:24.887Z,77.28
2018-10-19T01:29:24.884Z,77.38
2018-10-19T01:30:24.883Z,77.47
2018-10-19T01:31:24.916Z,77.86
2018-10-19T01:32:24.891Z,77.67
2018-10-19T01:33:24.879Z,77.95
2018-10-19T01:34:24.878Z,77.57
2018-10-19T01:35:24.882Z,77.67
2018-10-19T01:36:24.908Z,76.90
2018-10-19T01:37:24.872Z,76.33
2018-10-19T01:38:24.872Z,77.28
2018-10-19T01:39:24.869Z,76.14
2018-10-19T01:40:24.901Z,77.09
2018-10-19T01:41:24.869Z,76.42
2018-10-19T01:42:24.865Z,75.95
2018-10-19T01:43:24.864Z,76.04
2018-10-19T01:44:24.867Z,76.04
2018-10-19T01:45:24.891Z,77.00
2018-10-19T01:46:24.886Z,76.71
2018-10-19T01:47:24.854Z,76.23
2018-10-19T01:48:24.852Z,75.57
2018-10-19T01:49:24.853Z,76.33
2018-10-19T01:50:24.852Z,76.52
2018-10-19T01:51:24.878Z,76.52
2018-10-19T01:52:24.851Z,76.14
2018-10-19T01:53:24.848Z,76.23
2018-10-19T01:54:24.846Z,76.42
2018-10-19T01:55:24.873Z,76.71
2018-10-19T01:56:24.843Z,76.33
2018-10-19T01:57:24.844Z,76.62
2018-10-19T01:58:24.838Z,75.85
2018-10-19T01:59:24.839Z,76.23
2018-10-19T02:00:24.872Z,75.66
2018-10-19T02:01:24.835Z,75.76
2018-10-19T02:02:24.835Z,75.57
2018-10-19T02:03:24.831Z,75.57
2018-10-19T02:04:24.831Z,75.95
2018-10-19T02:05:24.860Z,74.61
2018-10-19T02:06:24.826Z,75.18
2018-10-19T02:07:24.823Z,75.18
2018-10-19T02:08:24.825Z,75.28
2018-10-19T02:09:24.824Z,73.08
2018-10-19T02:10:24.848Z,74.13
2018-10-19T02:11:24.819Z,74.52
2018-10-19T02:12:24.813Z,73.66
2018-10-19T02:13:24.817Z,74.32
2018-10-19T02:14:24.848Z,74.04
2018-10-19T02:15:24.821Z,72.89
2018-10-19T02:16:24.839Z,73.47
2018-10-19T02:17:24.808Z,73.37
2018-10-19T02:18:24.809Z,73.56
2018-10-19T02:19:24.806Z,72.80
2018-10-19T02:20:24.837Z,73.47
2018-10-19T02:21:24.801Z,73.28
2018-10-19T02:22:24.801Z,72.71
2018-10-19T02:23:24.800Z,73.18
2018-10-19T02:24:24.825Z,73.85
2018-10-19T02:25:24.796Z,73.37
2018-10-19T02:26:24.825Z,73.47
2018-10-19T02:27:24.793Z,74.04
2018-10-19T02:28:24.793Z,74.04
2018-10-19T02:29:24.794Z,74.23
2018-10-19T02:30:24.826Z,72.80
2018-10-19T02:31:24.786Z,72.99
2018-10-19T02:32:24.781Z,73.47
2018-10-19T02:33:24.783Z,72.23
2018-10-19T02:34:24.814Z,72.96
2018-10-19T02:35:24.780Z,73.91
2018-10-19T02:36:24.774Z,73.81
2018-10-19T02:37:24.772Z,73.43
2018-10-19T02:38:24.777Z,73.43
2018-10-19T02:39:24.801Z,73.43
2018-10-19T02:40:24.771Z,72.80
2018-10-19T02:41:24.772Z,73.81
2018-10-19T02:42:24.767Z,73.14
2018-10-19T02:43:24.761Z,73.24
2018-10-19T02:44:24.799Z,73.24
2018-10-19T02:45:24.761Z,72.96
2018-10-19T02:46:24.789Z,73.33
2018-10-19T02:47:24.761Z,72.96
2018-10-19T02:48:24.756Z,72.38
2018-10-19T02:49:24.748Z,72.76
2018-10-19T02:50:24.785Z,73.08
2018-10-19T02:51:24.763Z,72.86
2018-10-19T02:52:24.751Z,73.52
2018-10-19T02:53:24.749Z,73.81
2018-10-19T02:54:24.744Z,73.85
2018-10-19T02:55:24.775Z,73.33
2018-10-19T02:56:24.740Z,73.94
2018-10-19T02:57:24.747Z,73.62
2018-10-19T02:58:24.738Z,73.37
2018-10-19T02:59:24.740Z,73.91
2018-10-19T03:00:24.762Z,74.38
2018-10-19T03:01:24.734Z,74.01
2018-10-19T03:02:24.729Z,74.67
2018-10-19T03:03:24.734Z,74.48
2018-10-19T03:04:24.727Z,73.91
2018-10-19T03:05:24.754Z,73.72
2018-10-19T03:06:24.754Z,74.77
2018-10-19T03:07:24.726Z,73.05
2018-10-19T03:08:24.718Z,74.86
2018-10-19T03:09:24.724Z,73.81
2018-10-19T03:10:24.719Z,74.48
2018-10-19T03:11:24.773Z,74.57
2018-10-19T03:12:24.717Z,73.05
2018-10-19T03:13:24.715Z,74.29
2018-10-19T03:14:24.713Z,74.57
2018-10-19T03:15:24.744Z,74.19
2018-10-19T03:16:24.708Z,74.48
2018-10-19T03:17:24.736Z,73.43
2018-10-19T03:18:24.703Z,74.77
2018-10-19T03:19:24.790Z,74.10
2018-10-19T03:20:24.701Z,73.62
2018-10-19T03:21:24.725Z,74.38
2018-10-19T03:22:24.698Z,75.05
2018-10-19T03:23:24.696Z,74.23
2018-10-19T03:24:24.690Z,74.48
2018-10-19T03:25:24.738Z,74.10
2018-10-19T03:26:24.790Z,74.10
2018-10-19T03:27:24.717Z,73.72
2018-10-19T03:28:24.687Z,74.96
2018-10-19T03:29:24.685Z,74.19
2018-10-19T03:30:24.682Z,73.62
2018-10-19T03:31:24.711Z,73.14
2018-10-19T03:32:24.676Z,72.28
2018-10-19T03:33:24.680Z,74.01
2018-10-19T03:34:24.683Z,73.62
2018-10-19T03:35:24.678Z,72.48
2018-10-19T03:36:24.703Z,73.91
2018-10-19T03:37:24.677Z,74.01
2018-10-19T03:38:24.666Z,73.14
2018-10-19T03:39:24.666Z,73.81
2018-10-19T03:40:24.669Z,73.05
2018-10-19T03:41:24.700Z,73.33
2018-10-19T03:42:24.662Z,73.24
2018-10-19T03:43:24.660Z,73.05
2018-10-19T03:44:24.658Z,73.43
2018-10-19T03:45:24.687Z,73.24
2018-10-19T03:46:24.656Z,72.76
2018-10-19T03:47:24.678Z,73.05
2018-10-19T03:48:24.650Z,73.52
2018-10-19T03:49:24.649Z,72.57
2018-10-19T03:50:24.660Z,72.38
2018-10-19T03:51:24.675Z,73.14
2018-10-19T03:52:24.643Z,71.91
2018-10-19T03:53:24.649Z,72.38
2018-10-19T03:54:24.640Z,72.28
2018-10-19T03:55:24.639Z,71.81
2018-10-19T03:56:24.663Z,71.72
2018-10-19T03:57:24.635Z,71.04
2018-10-19T03:58:24.633Z,71.81
2018-10-19T03:59:24.632Z,73.05
2018-10-19T04:00:24.656Z,72.57
2018-10-19T04:01:24.636Z,72.86
2018-10-19T04:02:24.625Z,71.14
2018-10-19T04:03:24.674Z,71.52
2018-10-19T04:04:24.625Z,71.23
2018-10-19T04:05:24.652Z,71.23
2018-10-19T04:06:24.618Z,71.62
2018-10-19T04:07:24.622Z,72.48
2018-10-19T04:08:24.613Z,71.91
2018-10-19T04:09:24.616Z,71.72
2018-10-19T04:10:24.641Z,71.52
2018-10-19T04:11:24.618Z,71.52
2018-10-19T04:12:24.608Z,71.04
2018-10-19T04:13:24.602Z,71.62
2018-10-19T04:14:24.604Z,71.04
2018-10-19T04:15:25.032Z,71.14
2018-10-19T04:16:24.608Z,70.86
2018-10-19T04:17:24.600Z,70.76
2018-10-19T04:18:24.598Z,70.09
2018-10-19T04:19:24.596Z,70.28
2018-10-19T04:20:24.620Z,69.33
2018-10-19T04:21:24.593Z,68.85
2018-10-19T04:22:24.591Z,66.94
2018-10-19T04:23:24.589Z,67.71
2018-10-19T04:24:24.582Z,67.71
2018-10-19T04:25:24.611Z,66.38
2018-10-19T04:26:24.583Z,67.04
2018-10-19T04:27:24.631Z,66.85
2018-10-19T04:28:24.573Z,67.33
2018-10-19T04:29:24.576Z,66.94
2018-10-19T04:30:24.604Z,66.66
2018-10-19T04:31:24.571Z,66.38
2018-10-19T04:32:24.573Z,64.47
2018-10-19T04:33:24.568Z,65.52
2018-10-19T04:34:24.567Z,64.75
2018-10-19T04:35:24.593Z,65.23
2018-10-19T04:36:24.560Z,65.13
2018-10-19T04:37:24.559Z,64.65
2018-10-19T04:38:24.558Z,64.85
2018-10-19T04:39:24.557Z,63.89
2018-10-19T04:40:24.585Z,63.13
2018-10-19T04:41:24.577Z,62.18
2018-10-19T04:42:24.583Z,62.46
2018-10-19T04:43:24.552Z,63.04
2018-10-19T04:44:24.575Z,62.75
2018-10-19T04:45:24.546Z,62.27
2018-10-19T04:46:24.537Z,62.84
2018-10-19T04:47:24.569Z,62.08
2018-10-19T04:48:24.540Z,63.20
2018-10-19T04:49:24.538Z,62.65
2018-10-19T04:50:24.559Z,62.46
2018-10-19T04:51:24.534Z,63.70
2018-10-19T04:52:24.532Z,63.48
2018-10-19T04:53:24.532Z,63.42
2018-10-19T04:54:24.536Z,63.20
2018-10-19T04:55:24.555Z,63.39
2018-10-19T04:56:24.524Z,62.91
2018-10-19T04:57:24.523Z,62.34
2018-10-19T04:58:24.524Z,63.20
2018-10-19T04:59:24.582Z,62.91
2018-10-19T05:00:24.548Z,61.86
2018-10-19T05:01:24.516Z,62.91
2018-10-19T05:02:24.533Z,61.86
2018-10-19T05:03:24.517Z,61.67
2018-10-19T05:04:24.565Z,61.80
2018-10-19T05:05:24.632Z,62.43
2018-10-19T05:06:24.519Z,62.24
2018-10-19T05:07:24.502Z,62.34
2018-10-19T05:08:25.474Z,61.80
2018-10-19T05:09:24.505Z,62.24
2018-10-19T05:10:24.524Z,62.24
2018-10-19T05:11:24.494Z,61.57
2018-10-19T05:12:24.529Z,61.86
2018-10-19T05:13:24.493Z,62.52
2018-10-19T05:14:24.493Z,61.96
2018-10-19T05:15:24.520Z,61.04
2018-10-19T05:16:24.485Z,61.10
2018-10-19T05:17:24.497Z,61.76
2018-10-19T05:18:24.482Z,61.00
2018-10-19T05:19:24.481Z,61.67
2018-10-19T05:20:24.973Z,62.15
2018-10-19T05:21:25.927Z,62.43
2018-10-19T05:22:24.473Z,61.76
2018-10-19T05:23:24.481Z,61.76
2018-10-19T05:24:24.469Z,62.15
2018-10-19T05:25:24.501Z,62.15
2018-10-19T05:26:24.466Z,62.05
2018-10-19T05:27:24.467Z,62.18
2018-10-19T05:28:24.462Z,62.52
2018-10-19T05:29:24.459Z,63.48
2018-10-19T05:30:24.488Z,63.10
2018-10-19T05:31:24.462Z,62.34
2018-10-19T05:32:24.455Z,62.05
2018-10-19T05:33:24.455Z,62.34
2018-10-19T05:34:25.434Z,62.24
2018-10-19T05:35:24.476Z,62.52
2018-10-19T05:36:24.448Z,62.91
2018-10-19T05:37:24.618Z,62.62
2018-10-19T05:38:24.441Z,62.15
2018-10-19T05:39:24.446Z,62.91
2018-10-19T05:40:24.466Z,62.62
2018-10-19T05:41:24.436Z,61.29
2018-10-19T05:42:24.439Z,61.29
2018-10-19T05:43:24.498Z,62.52
2018-10-19T05:44:24.437Z,62.15
2018-10-19T05:45:24.462Z,62.52
2018-10-19T05:46:24.431Z,62.24
2018-10-19T05:47:24.427Z,63.57
2018-10-19T05:48:24.425Z,63.20
2018-10-19T05:49:24.420Z,62.72
2018-10-19T05:50:25.451Z,61.96
2018-10-19T05:51:24.917Z,62.15
2018-10-19T05:52:24.939Z,62.52
2018-10-19T05:53:24.460Z,62.15
2018-10-19T05:54:24.937Z,62.52
2018-10-19T05:55:25.930Z,62.43
2018-10-19T05:56:24.406Z,62.24
2018-10-19T05:57:24.410Z,62.91
2018-10-19T05:58:24.405Z,62.52
2018-10-19T05:59:25.047Z,62.43
2018-10-19T06:00:24.432Z,63.00
2018-10-19T06:01:24.410Z,62.43
2018-10-19T06:02:24.494Z,62.24
2018-10-19T06:03:24.398Z,61.19
2018-10-19T06:04:24.396Z,62.52
2018-10-19T06:05:24.419Z,62.91
2018-10-19T06:06:24.388Z,63.29
2018-10-19T06:07:24.387Z,62.81
2018-10-19T06:08:24.380Z,62.62
2018-10-19T06:09:24.383Z,63.10
2018-10-19T06:10:24.407Z,60.91
2018-10-19T06:11:24.382Z,63.10
2018-10-19T06:12:24.377Z,62.91
2018-10-19T06:13:24.376Z,61.76
2018-10-19T06:14:24.371Z,62.72
2018-10-19T06:15:24.395Z,62.34
2018-10-19T06:16:24.372Z,62.62
2018-10-19T06:17:24.361Z,62.91
2018-10-19T06:18:24.364Z,62.24
2018-10-19T06:19:24.395Z,62.15
2018-10-19T06:20:24.360Z,63.00
2018-10-19T06:21:24.363Z,62.24
2018-10-19T06:22:24.356Z,62.91
2018-10-19T06:23:24.359Z,62.81
2018-10-19T06:24:24.386Z,62.91
2018-10-19T06:25:24.384Z,62.72
2018-10-19T06:26:24.403Z,62.81
2018-10-19T06:27:24.346Z,63.57
2018-10-19T06:28:24.344Z,62.34
2018-10-19T06:29:24.938Z,64.34
2018-10-19T06:30:24.369Z,63.39
2018-10-19T06:31:24.344Z,63.76
2018-10-19T06:32:24.342Z,63.76
2018-10-19T06:33:24.335Z,63.57
2018-10-19T06:34:24.334Z,62.15
2018-10-19T06:35:24.357Z,63.10
2018-10-19T06:36:24.327Z,64.91
2018-10-19T06:37:24.337Z,64.72
2018-10-19T06:38:24.325Z,64.34
2018-10-19T06:39:24.393Z,65.29
2018-10-19T06:40:24.345Z,65.39
2018-10-19T06:41:24.319Z,65.00
2018-10-19T06:42:24.315Z,65.29
2018-10-19T06:43:24.314Z,66.44
2018-10-19T06:44:24.341Z,67.86
2018-10-19T06:45:24.309Z,66.82
2018-10-19T06:46:24.305Z,67.77
2018-10-19T06:47:24.381Z,70.34
2018-10-19T06:48:24.304Z,72.25
2018-10-19T06:49:24.329Z,70.15
2018-10-19T06:50:24.294Z,70.53
2018-10-19T06:51:24.299Z,70.82
2018-10-19T06:52:24.295Z,70.92
2018-10-19T06:53:24.287Z,73.21
2018-10-19T06:54:24.319Z,73.11
2018-10-19T06:55:24.290Z,73.01
2018-10-19T06:56:24.287Z,73.58
2018-10-19T06:57:24.285Z,72.25
2018-10-19T06:58:24.283Z,73.21
2018-10-19T06:59:24.370Z,73.96
2018-10-19T07:00:24.280Z,74.92
2018-10-19T07:01:24.277Z,75.78
2018-10-19T07:02:24.278Z,75.49
2018-10-19T07:03:24.277Z,75.40
2018-10-19T07:04:24.306Z,73.96
2018-10-19T07:05:24.296Z,75.49
2018-10-19T07:06:24.267Z,74.06
2018-10-19T07:07:24.266Z,75.40
2018-10-19T07:08:24.326Z,73.21
2018-10-19T07:09:24.261Z,73.30
2018-10-19T07:10:24.297Z,73.30
2018-10-19T07:11:24.257Z,73.77
2018-10-19T07:12:24.257Z,74.06
2018-10-19T07:13:24.253Z,73.87
2018-10-19T07:14:24.249Z,74.16
2018-10-19T07:15:24.279Z,73.11
2018-10-19T07:16:24.249Z,71.58
2018-10-19T07:17:24.246Z,73.96
2018-10-19T07:18:24.245Z,74.25
2018-10-19T07:19:24.241Z,73.39
2018-10-19T07:20:24.270Z,74.06
2018-10-19T07:21:24.238Z,73.21
2018-10-19T07:22:24.243Z,73.30
2018-10-19T07:23:24.237Z,73.87
2018-10-19T07:24:24.259Z,73.96
2018-10-19T07:25:24.230Z,72.92
2018-10-19T07:26:24.230Z,74.06
2018-10-19T07:27:24.236Z,73.01
2018-10-19T07:28:24.228Z,73.21
2018-10-19T07:29:24.277Z,73.87
2018-10-19T07:30:24.228Z,73.68
2018-10-19T07:31:24.224Z,74.73
2018-10-19T07:32:24.219Z,74.29
2018-10-19T07:33:24.220Z,75.40
2018-10-19T07:34:24.244Z,75.96
2018-10-19T07:35:24.217Z,76.35
2018-10-19T07:36:24.296Z,76.29
2018-10-19T07:37:24.213Z,77.06
2018-10-19T07:38:24.212Z,79.63
2018-10-19T07:39:24.237Z,81.73
2018-10-19T07:40:24.206Z,83.06
2018-10-19T07:41:24.204Z,82.97
2018-10-19T07:42:24.224Z,82.11
2018-10-19T07:43:24.202Z,86.21
2018-10-19T07:44:24.240Z,85.06
2018-10-19T07:45:24.197Z,85.16
2018-10-19T07:46:24.204Z,86.88
2018-10-19T07:47:24.382Z,87.45
2018-10-19T07:48:24.246Z,87.16
2018-10-19T07:49:24.229Z,86.21
2018-10-19T07:50:24.189Z,88.31
2018-10-19T07:51:24.189Z,88.21
2018-10-19T07:52:24.202Z,88.50
2018-10-19T07:53:24.189Z,87.64
2018-10-19T07:54:24.245Z,86.69
2018-10-19T07:55:24.182Z,87.54
2018-10-19T07:56:24.183Z,88.12
2018-10-19T07:57:24.182Z,88.59
2018-10-19T07:58:24.191Z,87.35
2018-10-19T07:59:24.205Z,86.88
2018-10-19T08:00:24.221Z,88.21
2018-10-19T08:01:24.172Z,89.17
2018-10-19T08:02:24.175Z,88.40
2018-10-19T08:03:24.177Z,91.17
2018-10-19T08:04:24.201Z,89.74
2018-10-19T08:05:24.200Z,88.69
2018-10-19T08:06:24.169Z,89.74
2018-10-19T08:07:24.168Z,89.54
2018-10-19T08:08:24.163Z,92.22
2018-10-19T08:09:24.164Z,89.93
2018-10-19T08:10:24.193Z,89.83
2018-10-19T08:11:24.170Z,90.31
2018-10-19T08:12:24.159Z,91.36
2018-10-19T08:13:24.159Z,91.36
2018-10-19T08:14:24.156Z,91.07
2018-10-19T08:15:24.188Z,91.83
2018-10-19T08:16:24.156Z,91.64
2018-10-19T08:17:24.156Z,92.69
2018-10-19T08:18:24.156Z,91.74
2018-10-19T08:19:24.256Z,91.93
2018-10-19T08:20:24.181Z,89.74
2018-10-19T08:21:24.149Z,93.36
2018-10-19T08:22:24.148Z,94.89
2018-10-19T08:23:24.156Z,95.65
2018-10-19T08:24:24.149Z,95.41
2018-10-19T08:25:24.178Z,96.84
2018-10-19T08:26:24.147Z,96.27
2018-10-19T08:27:24.251Z,96.08
2018-10-19T08:28:24.137Z,97.89
2018-10-19T08:29:24.138Z,96.37
2018-10-19T08:30:24.165Z,95.84
2018-10-19T08:31:24.133Z,96.75
2018-10-19T08:32:24.134Z,96.70
2018-10-19T08:33:24.132Z,97.94
2018-10-19T08:34:24.134Z,96.84
2018-10-19T08:35:24.162Z,98.13
2018-10-19T08:36:24.140Z,96.61
2018-10-19T08:37:25.965Z,96.32
2018-10-19T08:38:24.129Z,96.89
2018-10-19T08:39:24.130Z,98.13
2018-10-19T08:40:24.162Z,97.89
2018-10-19T08:41:24.161Z,98.75
2018-10-19T08:42:24.129Z,99.99
2018-10-19T08:43:24.131Z,99.99
2018-10-19T08:44:24.153Z,99.99
2018-10-19T08:45:24.154Z,99.99
2018-10-19T08:46:24.123Z,99.99
2018-10-19T08:47:24.124Z,99.99
2018-10-19T08:48:24.123Z,99.99
2018-10-19T08:49:24.125Z,99.99
2018-10-19T08:50:24.152Z,99.23
2018-10-19T08:51:24.121Z,99.99
2018-10-19T08:52:24.119Z,99.99
2018-10-19T08:53:24.168Z,99.99
2018-10-19T08:54:24.186Z,99.99
2018-10-19T08:55:24.161Z,99.99
2018-10-19T08:56:24.914Z,99.99
2018-10-19T08:57:24.955Z,99.99
2018-10-19T08:58:24.982Z,99.99
2018-10-19T08:59:25.971Z,99.99
2018-10-19T09:00:24.141Z,99.99
2018-10-19T09:01:24.117Z,99.99
2018-10-19T09:02:24.118Z,99.99
2018-10-19T09:03:24.146Z,99.99
2018-10-19T09:04:24.114Z,99.99
2018-10-19T09:05:24.145Z,99.99
2018-10-19T09:06:24.116Z,99.99
2018-10-19T09:07:24.117Z,99.99
2018-10-19T09:08:24.116Z,99.99
2018-10-19T09:09:24.113Z,99.99
2018-10-19T09:10:24.145Z,99.99
2018-10-19T09:11:24.156Z,99.99
2018-10-19T09:12:24.184Z,99.99
2018-10-19T09:13:26.953Z,99.99
2018-10-19T09:14:24.109Z,99.99
2018-10-19T09:15:24.138Z,99.99
2018-10-19T09:16:24.112Z,99.99
2018-10-19T09:17:24.399Z,99.99
2018-10-19T09:18:24.927Z,99.99
2018-10-19T09:19:24.175Z,99.99
2018-10-19T09:20:25.895Z,99.99
2018-10-19T09:21:24.127Z,99.99
2018-10-19T09:22:24.115Z,99.99
2018-10-19T09:23:24.126Z,99.99
2018-10-19T09:24:24.125Z,99.99
2018-10-19T09:25:24.159Z,99.99
2018-10-19T09:26:24.116Z,99.99
2018-10-19T09:27:25.044Z,99.99
2018-10-19T09:28:24.149Z,99.99
2018-10-19T09:29:24.183Z,99.99
2018-10-19T09:30:24.157Z,99.99
2018-10-19T09:31:24.126Z,99.99
2018-10-19T09:32:24.118Z,99.99
2018-10-19T09:33:24.121Z,99.99
2018-10-19T09:34:25.005Z,99.99
2018-10-19T09:35:24.191Z,99.99
2018-10-19T09:36:24.233Z,99.99
2018-10-19T09:37:24.129Z,99.99
2018-10-19T09:38:24.121Z,99.99
2018-10-19T09:39:24.155Z,99.99
2018-10-19T09:40:24.223Z,99.99
2018-10-19T09:41:25.295Z,99.99
2018-10-19T09:42:24.133Z,99.99
2018-10-19T09:43:24.124Z,99.99
2018-10-19T09:44:24.131Z,99.99
2018-10-19T09:45:24.158Z,99.99
2018-10-19T09:46:24.126Z,99.99
2018-10-19T09:47:24.167Z,99.99
2018-10-19T09:48:24.136Z,99.99
2018-10-19T09:49:24.833Z,99.99
2018-10-19T09:50:24.165Z,99.99
2018-10-19T09:51:24.145Z,99.99
2018-10-19T09:52:24.131Z,99.99
2018-10-19T09:53:24.134Z,99.99
2018-10-19T09:54:24.147Z,99.99
2018-10-19T09:55:24.196Z,99.99
2018-10-19T09:56:24.827Z,99.99
2018-10-19T09:57:24.168Z,99.99
2018-10-19T09:58:24.149Z,99.99
2018-10-19T09:59:24.159Z,99.99
2018-10-19T10:00:24.163Z,99.99
2018-10-19T10:01:24.147Z,99.99
2018-10-19T10:02:24.129Z,99.99
2018-10-19T10:03:24.136Z,99.99
2018-10-19T10:04:24.157Z,99.99
2018-10-19T10:05:24.141Z,99.99
2018-10-19T10:06:24.170Z,99.99
2018-10-19T10:07:24.128Z,99.99
2018-10-19T10:08:24.132Z,99.99
2018-10-19T10:09:24.139Z,99.99
2018-10-19T10:10:24.172Z,99.99
2018-10-19T10:11:24.133Z,99.99
2018-10-19T10:12:24.135Z,99.99
2018-10-19T10:13:24.138Z,99.99
2018-10-19T10:14:24.141Z,99.99
2018-10-19T10:15:24.441Z,99.99
2018-10-19T10:16:24.144Z,99.99
2018-10-19T10:17:24.139Z,99.99
2018-10-19T10:18:24.268Z,99.99
2018-10-19T10:19:24.132Z,99.99
2018-10-19T10:20:24.155Z,99.99
2018-10-19T10:21:24.131Z,99.99
2018-10-19T10:22:24.133Z,99.99
2018-10-19T10:23:24.124Z,99.99
2018-10-19T10:24:24.152Z,99.99
2018-10-19T10:25:24.186Z,99.99
2018-10-19T10:26:24.161Z,99.99
2018-10-19T10:27:24.148Z,99.99
2018-10-19T10:28:24.143Z,99.99
2018-10-19T10:29:24.134Z,99.99
2018-10-19T10:30:24.164Z,99.99
2018-10-19T10:31:24.149Z,99.99
2018-10-19T10:32:24.191Z,99.99
2018-10-19T10:33:24.147Z,99.99
2018-10-19T10:34:24.211Z,99.99
2018-10-19T10:35:24.156Z,99.99
2018-10-19T10:36:24.160Z,99.99
2018-10-19T10:37:24.133Z,99.99
2018-10-19T10:38:24.148Z,99.99
2018-10-19T10:39:24.253Z,99.99
2018-10-19T10:40:24.164Z,99.99
2018-10-19T10:41:24.134Z,99.99
2018-10-19T10:42:24.131Z,99.99
2018-10-19T10:43:24.176Z,99.99
2018-10-19T10:44:24.168Z,99.99
2018-10-19T10:45:24.136Z,99.99
2018-10-19T10:46:24.146Z,99.99
2018-10-19T10:47:24.132Z,99.99
2018-10-19T10:48:24.133Z,99.99
2018-10-19T10:49:24.165Z,99.99
2018-10-19T10:50:24.171Z,99.99
2018-10-19T10:51:24.134Z,99.99
2018-10-19T10:52:24.137Z,99.99
2018-10-19T10:53:24.144Z,99.99
2018-10-19T10:54:24.133Z,99.99
2018-10-19T10:55:24.171Z,99.99
2018-10-19T10:56:24.136Z,99.99
2018-10-19T10:57:24.136Z,99.99
2018-10-19T10:58:24.147Z,99.99
2018-10-19T10:59:24.135Z,99.99
2018-10-19T11:00:24.169Z,99.99
2018-10-19T11:01:24.145Z,99.99
2018-10-19T11:02:24.154Z,99.99
2018-10-19T11:03:24.146Z,99.99
2018-10-19T11:04:24.131Z,99.99
2018-10-19T11:05:24.180Z,99.99
2018-10-19T11:06:24.149Z,99.99
2018-10-19T11:07:24.214Z,99.99
2018-10-19T11:08:24.143Z,99.99
2018-10-19T11:09:24.144Z,99.99
2018-10-19T11:10:24.181Z,99.99
2018-10-19T11:11:24.151Z,99.99
2018-10-19T11:12:24.988Z,99.99
2018-10-19T11:13:24.154Z,99.99
2018-10-19T11:14:24.144Z,99.99
2018-10-19T11:15:24.217Z,99.99
2018-10-19T11:16:24.144Z,99.99
2018-10-19T11:17:24.142Z,99.99
2018-10-19T11:18:24.153Z,99.99
2018-10-19T11:19:24.159Z,99.99
2018-10-19T11:20:24.190Z,99.99
2018-10-19T11:21:24.148Z,99.99
2018-10-19T11:22:24.154Z,99.99
2018-10-19T11:23:24.999Z,99.99
2018-10-19T11:24:24.183Z,99.99
2018-10-19T11:25:24.201Z,99.99
2018-10-19T11:26:24.150Z,99.99
2018-10-19T11:27:24.976Z,99.99
2018-10-19T11:28:24.154Z,99.99
2018-10-19T11:29:24.160Z,99.99
2018-10-19T11:30:24.286Z,99.99
2018-10-19T11:31:24.156Z,99.99
2018-10-19T11:32:24.980Z,99.99
2018-10-19T11:33:24.166Z,99.99
2018-10-19T11:34:24.155Z,99.99
2018-10-19T11:35:24.193Z,99.99
2018-10-19T11:36:24.161Z,99.99
2018-10-19T11:37:24.195Z,99.99
2018-10-19T11:38:24.161Z,99.99
2018-10-19T11:39:24.175Z,99.99
2018-10-19T11:40:24.201Z,99.99
2018-10-19T11:41:24.170Z,99.99
2018-10-19T11:42:24.990Z,99.99
2018-10-19T11:43:24.166Z,99.99
2018-10-19T11:44:24.172Z,99.99
2018-10-19T11:45:24.198Z,99.99
2018-10-19T11:46:24.171Z,99.99
2018-10-19T11:47:24.167Z,99.99
2018-10-19T11:48:24.172Z,99.99
2018-10-19T11:49:24.170Z,99.99
2018-10-19T11:50:24.203Z,99.99
2018-10-19T11:51:24.172Z,99.99
2018-10-19T11:52:24.183Z,99.99
2018-10-19T11:53:24.180Z,99.99
2018-10-19T11:54:24.182Z,99.99
2018-10-19T11:55:24.207Z,99.99
2018-10-19T11:56:24.177Z,99.99
2018-10-19T11:57:24.209Z,99.99
2018-10-19T11:58:24.182Z,99.99
2018-10-19T11:59:24.181Z,99.99
2018-10-19T12:00:24.982Z,99.99
2018-10-19T12:01:24.218Z,99.99
2018-10-19T12:02:24.197Z,99.99
2018-10-19T12:03:24.212Z,99.99
2018-10-19T12:04:24.190Z,99.99
2018-10-19T12:05:24.217Z,99.99
2018-10-19T12:06:24.190Z,99.99
2018-10-19T12:07:24.188Z,99.99
2018-10-19T12:08:24.189Z,99.99
2018-10-19T12:09:24.191Z,99.99
2018-10-19T12:10:24.218Z,99.99
2018-10-19T12:11:24.194Z,99.99
2018-10-19T12:12:24.187Z,99.99
2018-10-19T12:13:24.982Z,99.99
2018-10-19T12:14:24.988Z,99.99
2018-10-19T12:15:24.228Z,99.99
2018-10-19T12:16:24.215Z,99.99
2018-10-19T12:17:24.201Z,99.99
2018-10-19T12:18:24.204Z,99.99
2018-10-19T12:19:24.207Z,99.99
2018-10-19T12:20:24.238Z,99.99
2018-10-19T12:21:24.222Z,99.99
2018-10-19T12:22:24.209Z,99.99
2018-10-19T12:23:24.251Z,99.99
2018-10-19T12:24:24.208Z,99.99
2018-10-19T12:25:24.207Z,99.99
2018-10-19T12:26:24.236Z,99.99
2018-10-19T12:27:24.213Z,99.99
2018-10-19T12:28:24.214Z,99.99
2018-10-19T12:29:24.214Z,99.99
2018-10-19T12:30:24.245Z,99.99
2018-10-19T12:31:24.988Z,99.99
2018-10-19T12:32:24.218Z,99.99
2018-10-19T12:33:24.246Z,99.99
2018-10-19T12:34:24.217Z,99.99
2018-10-19T12:35:24.239Z,99.99
2018-10-19T12:36:24.249Z,99.99
2018-10-19T12:37:24.234Z,99.99
2018-10-19T12:38:24.586Z,99.99
2018-10-19T12:39:24.225Z,99.99
2018-10-19T12:40:24.227Z,99.99
2018-10-19T12:41:24.262Z,99.99
2018-10-19T12:42:24.992Z,99.99
2018-10-19T12:43:24.234Z,99.99
2018-10-19T12:44:24.985Z,99.99
2018-10-19T12:45:24.225Z,99.99
2018-10-19T12:46:24.264Z,99.99
2018-10-19T12:47:24.321Z,99.99
2018-10-19T12:48:24.262Z,99.99
2018-10-19T12:49:24.235Z,99.99
2018-10-19T12:50:24.249Z,99.99
2018-10-19T12:51:24.244Z,99.99
2018-10-19T12:52:24.267Z,99.99